Kiowa, Colorado
Current Conditions -  °F | °C
As of 7:16 AM on Thursday 29 Jan 2015 (Local Time) from KMNH Reporting Station
Overcast Overcast  
Wind Chill: 24°   Ceiling: 7000
Heat Index: 30°   Visibility: 10mi
Dew Point: 28°   Wind: 6mph
Humidity: 93%   Direction: 350°N
Pressure: 30.45"   Gusts: NA
Location:  39.35°N, 104.46°W
Report Text: KMNH 291416Z AUTO 35005KT 10SM OVC070 M01/M02 A3045 RMK AO2
Loading
Personal Weather Stations






























Interactive Weather Map New forecast layout! Learn more

10-Day Weather Forecast

Advertisements
Track Severe Weather on mobile